Time;durP1;ratioP1;P1;durP2;ratioP2;P2;SDS_P1;SDS_P2;PMS_P1;PMS_P2;Temp;Humidity;BMP_temperature;BMP_pressure;BME280_temperature;BME280_humidity;BME280_pressure;Samples;Min_cycle;Max_cycle;Signal;HPM_P1;HPM_P2
2023/03/15 00:00:44;;;;;;;7.15;2.60;;;3.10;99.90;;;;;;4994856;28;20461;-63
2023/03/15 00:03:10;;;;;;;7.63;2.60;;;3.20;99.90;;;;;;4966975;28;20122;-63
2023/03/15 00:05:36;;;;;;;8.20;2.53;;;3.20;99.90;;;;;;4981395;28;20089;-63
2023/03/15 00:08:02;;;;;;;6.22;2.35;;;3.10;99.90;;;;;;4995187;28;20043;-63
2023/03/15 00:10:28;;;;;;;6.88;2.25;;;3.10;99.90;;;;;;4995681;28;20038;-63
2023/03/15 00:12:54;;;;;;;7.68;2.10;;;3.10;99.90;;;;;;4978364;28;20086;-63
2023/03/15 00:15:20;;;;;;;2.92;1.63;;;3.10;99.90;;;;;;4993603;28;20034;-63
2023/03/15 00:17:45;;;;;;;8.15;1.70;;;3.10;99.90;;;;;;4994899;28;20046;-63
2023/03/15 00:20:13;;;;;;;4.22;1.60;;;3.10;99.90;;;;;;4994434;28;20047;-63
2023/03/15 00:22:39;;;;;;;6.40;1.70;;;3.10;99.90;;;;;;4988779;28;20076;-63
2023/03/15 00:25:05;;;;;;;3.08;1.55;;;3.10;99.90;;;;;;4975958;28;20039;-63
2023/03/15 00:27:31;;;;;;;7.45;1.90;;;3.10;99.90;;;;;;4995146;28;20042;-63
2023/03/15 00:29:56;;;;;;;5.75;1.50;;;3.10;99.90;;;;;;4994345;28;20042;-63
2023/03/15 00:32:22;;;;;;;1.77;1.23;;;3.10;99.90;;;;;;4995410;28;21820;-63
2023/03/15 00:34:47;;;;;;;2.80;1.50;;;3.10;99.90;;;;;;4997775;28;20049;-63
2023/03/15 00:37:18;;;;;;;3.70;1.50;;;3.10;99.90;;;;;;4993666;28;20053;-63
2023/03/15 00:39:45;;;;;;;4.70;1.50;;;3.10;99.90;;;;;;4994537;28;20116;-63
2023/03/15 00:42:14;;;;;;;4.90;1.50;;;3.10;99.90;;;;;;4975041;28;20041;-63
2023/03/15 00:44:43;;;;;;;4.68;1.42;;;3.10;99.90;;;;;;4995649;28;20113;-63
2023/03/15 00:47:11;;;;;;;2.47;1.50;;;3.10;99.90;;;;;;5010113;28;20050;-63
2023/03/15 00:49:37;;;;;;;2.55;1.20;;;3.10;99.90;;;;;;4993407;28;20042;-63
2023/03/15 00:52:02;;;;;;;3.22;1.58;;;3.10;99.90;;;;;;4991743;28;20050;-63
2023/03/15 00:54:28;;;;;;;3.25;1.45;;;3.00;99.90;;;;;;5007695;28;20125;-63
2023/03/15 00:56:54;;;;;;;4.70;1.60;;;3.00;99.90;;;;;;4993649;28;20496;-63
2023/03/15 00:59:20;;;;;;;2.58;1.25;;;3.00;99.90;;;;;;4992806;28;20034;-63
2023/03/15 01:01:46;;;;;;;4.18;1.13;;;3.00;99.90;;;;;;4991222;28;20078;-63
2023/03/15 01:04:12;;;;;;;1.50;1.40;;;3.00;99.90;;;;;;4985107;28;20567;-63
2023/03/15 01:06:41;;;;;;;6.28;1.50;;;3.00;99.90;;;;;;4994405;28;20088;-63
2023/03/15 01:09:07;;;;;;;3.17;1.42;;;3.00;99.90;;;;;;4993611;28;21506;-63
2023/03/15 01:11:34;;;;;;;5.13;1.42;;;3.00;99.90;;;;;;4992594;28;20038;-63
2023/03/15 01:13:59;;;;;;;6.03;1.60;;;3.00;99.90;;;;;;4994076;28;20397;-63
2023/03/15 01:16:27;;;;;;;7.35;1.40;;;3.00;99.90;;;;;;4974561;28;20117;-63
2023/03/15 01:18:53;;;;;;;2.97;1.33;;;3.00;99.90;;;;;;4990562;28;20072;-63
2023/03/15 01:21:20;;;;;;;3.47;1.48;;;3.00;99.90;;;;;;4983247;28;20069;-63
2023/03/15 01:23:45;;;;;;;5.25;1.38;;;2.90;99.90;;;;;;4976123;28;20067;-63
2023/03/15 01:26:13;;;;;;;5.75;1.70;;;2.90;99.90;;;;;;4992554;28;20488;-63
2023/03/15 01:28:39;;;;;;;5.32;1.27;;;2.90;99.90;;;;;;5000430;28;20038;-63
2023/03/15 01:31:05;;;;;;;2.97;1.35;;;2.90;99.90;;;;;;4991613;28;20034;-63
2023/03/15 01:33:31;;;;;;;2.20;1.30;;;2.90;99.90;;;;;;4992733;28;20046;-63
2023/03/15 01:36:02;;;;;;;4.72;1.45;;;2.90;99.90;;;;;;4976069;28;20042;-63
2023/03/15 01:38:27;;;;;;;3.03;1.63;;;2.90;99.90;;;;;;4976434;28;20088;-63
2023/03/15 01:40:53;;;;;;;6.38;2.17;;;2.90;99.90;;;;;;4991313;28;20484;-63
2023/03/15 01:43:27;;;;;;;4.18;1.58;;;2.80;99.90;;;;;;4998238;28;20046;-63
2023/03/15 01:46:15;;;;;;;2.30;1.08;;;2.90;99.90;;;;;;4996229;28;20042;-63
2023/03/15 01:48:52;;;;;;;3.28;1.40;;;2.80;99.90;;;;;;4997415;28;20030;-63
2023/03/15 01:51:36;;;;;;;3.40;1.20;;;2.80;99.90;;;;;;4984390;28;20047;-63
2023/03/15 01:54:04;;;;;;;5.00;1.30;;;2.80;99.90;;;;;;4992190;28;20038;-63
2023/03/15 01:56:33;;;;;;;3.80;1.50;;;2.80;99.90;;;;;;5013539;28;20054;-63
2023/03/15 01:59:02;;;;;;;4.05;1.30;;;2.70;99.90;;;;;;4990991;28;20130;-63
2023/03/15 02:01:28;;;;;;;4.07;1.35;;;2.70;99.90;;;;;;4990744;28;20472;-63
2023/03/15 02:04:02;;;;;;;5.35;1.58;;;2.70;99.90;;;;;;4994070;28;20039;-63
2023/03/15 02:06:28;;;;;;;5.80;1.25;;;2.70;99.90;;;;;;4990208;28;20097;-63
2023/03/15 02:08:59;;;;;;;4.80;1.45;;;2.60;99.90;;;;;;4991563;28;20121;-63
2023/03/15 02:11:26;;;;;;;4.95;1.52;;;2.60;99.90;;;;;;4994922;28;20053;-63
2023/03/15 02:13:52;;;;;;;5.32;1.30;;;2.60;99.90;;;;;;4975114;28;20050;-63
2023/03/15 02:16:20;;;;;;;6.57;1.25;;;2.60;99.90;;;;;;4991937;28;20064;-63
2023/03/15 02:18:46;;;;;;;5.57;1.38;;;2.60;99.90;;;;;;4991242;28;20488;-63
2023/03/15 02:21:36;;;;;;;3.45;1.33;;;2.60;99.90;;;;;;4985688;28;20037;-63
2023/03/15 02:24:13;;;;;;;3.80;1.10;;;2.60;99.90;;;;;;4990418;28;20042;-63
2023/03/15 02:26:47;;;;;;;8.75;1.48;;;2.60;99.90;;;;;;5005675;28;20042;-63
2023/03/15 02:29:13;;;;;;;8.20;2.05;;;2.60;99.90;;;;;;4991810;28;20096;-63
2023/03/15 02:31:39;;;;;;;4.55;1.40;;;2.60;99.90;;;;;;4991201;28;20405;-63
2023/03/15 02:34:06;;;;;;;9.38;1.88;;;2.60;99.90;;;;;;4990180;28;20440;-63
2023/03/15 02:36:32;;;;;;;6.18;1.77;;;2.60;99.90;;;;;;4975816;28;20050;-63
2023/03/15 02:38:58;;;;;;;6.97;1.38;;;2.60;99.90;;;;;;4972119;28;20086;-63
2023/03/15 02:41:27;;;;;;;10.48;1.27;;;2.70;99.90;;;;;;4989530;28;20504;-63
2023/03/15 02:43:59;;;;;;;3.53;1.15;;;2.60;99.90;;;;;;4995114;28;20076;-63
2023/03/15 02:46:24;;;;;;;6.22;1.38;;;2.60;99.90;;;;;;4990946;28;20403;-63
2023/03/15 02:48:53;;;;;;;7.15;1.30;;;2.60;99.90;;;;;;4991733;28;20026;-63
2023/03/15 02:51:21;;;;;;;5.97;1.52;;;2.60;99.90;;;;;;4973348;28;20061;-63
2023/03/15 02:53:47;;;;;;;6.20;1.60;;;2.60;99.90;;;;;;5005978;28;20050;-63
2023/03/15 02:56:13;;;;;;;4.43;0.85;;;2.60;99.90;;;;;;4991870;28;20092;-63
2023/03/15 02:58:39;;;;;;;6.97;1.30;;;2.50;99.90;;;;;;4991442;28;20045;-63
2023/03/15 03:01:05;;;;;;;8.95;1.30;;;2.50;99.90;;;;;;5004090;28;20124;-63
2023/03/15 03:03:31;;;;;;;7.20;1.58;;;2.50;99.90;;;;;;4976163;28;20066;-62
2023/03/15 03:05:56;;;;;;;7.63;1.27;;;2.50;99.90;;;;;;4990956;28;20404;-63
2023/03/15 03:08:22;;;;;;;8.55;1.55;;;2.60;99.90;;;;;;4974360;28;20034;-63
2023/03/15 03:10:48;;;;;;;6.43;1.30;;;2.50;99.90;;;;;;4991360;28;20043;-63
2023/03/15 03:13:14;;;;;;;5.32;1.50;;;2.50;99.90;;;;;;4972146;28;20050;-63
2023/03/15 03:15:39;;;;;;;8.82;1.23;;;2.50;99.90;;;;;;4996116;28;20038;-63
2023/03/15 03:18:05;;;;;;;7.28;1.63;;;2.50;99.90;;;;;;4989120;28;20042;-63
2023/03/15 03:20:32;;;;;;;6.55;1.35;;;2.40;99.90;;;;;;4976919;28;20046;-63
2023/03/15 03:22:57;;;;;;;5.80;1.30;;;2.40;99.90;;;;;;4994902;28;20038;-63
2023/03/15 03:25:26;;;;;;;4.45;1.42;;;2.40;99.90;;;;;;4995491;28;20060;-63
2023/03/15 03:27:55;;;;;;;13.75;2.00;;;2.40;99.90;;;;;;4993244;28;20069;-63
2023/03/15 03:30:21;;;;;;;6.15;1.50;;;2.30;99.90;;;;;;4997905;28;20396;-63
2023/03/15 03:32:47;;;;;;;7.97;1.70;;;2.30;99.90;;;;;;4976878;28;20108;-63
2023/03/15 03:35:12;;;;;;;8.00;1.40;;;2.20;99.90;;;;;;4995631;28;20069;-63
2023/03/15 03:37:38;;;;;;;7.30;1.40;;;2.20;99.90;;;;;;4995953;28;20084;-63
2023/03/15 03:40:06;;;;;;;6.50;1.30;;;2.20;99.90;;;;;;4995484;28;20081;-63
2023/03/15 03:42:32;;;;;;;10.18;1.40;;;2.10;99.90;;;;;;4994354;28;20682;-63
2023/03/15 03:44:58;;;;;;;6.22;1.42;;;2.10;99.90;;;;;;4995524;28;20113;-63
2023/03/15 03:47:23;;;;;;;5.53;1.33;;;2.10;99.90;;;;;;4978554;28;20042;-63
2023/03/15 03:49:49;;;;;;;4.55;1.40;;;2.00;99.90;;;;;;4994777;28;20113;-63
2023/03/15 03:52:15;;;;;;;5.13;1.50;;;2.00;99.90;;;;;;4995538;28;20483;-63
2023/03/15 03:54:41;;;;;;;7.90;1.60;;;1.90;99.90;;;;;;4982591;28;20116;-63
2023/03/15 03:57:07;;;;;;;4.88;1.42;;;1.90;99.90;;;;;;4996560;28;20069;-63
2023/03/15 03:59:33;;;;;;;4.80;1.20;;;1.90;99.90;;;;;;4994191;28;20113;-63
2023/03/15 04:01:58;;;;;;;4.82;0.93;;;1.80;99.90;;;;;;4981438;28;20125;-63
2023/03/15 04:04:25;;;;;;;4.82;1.50;;;1.80;99.90;;;;;;5001952;28;20034;-63
2023/03/15 04:06:51;;;;;;;9.23;1.45;;;1.70;99.90;;;;;;4997350;28;20057;-64
2023/03/15 04:09:16;;;;;;;6.32;1.40;;;1.70;99.90;;;;;;4993733;28;20038;-63
2023/03/15 04:11:42;;;;;;;3.65;1.20;;;1.60;99.90;;;;;;5001269;28;20084;-63
2023/03/15 04:14:12;;;;;;;5.50;1.45;;;1.60;99.90;;;;;;4996940;28;20035;-63
2023/03/15 04:16:38;;;;;;;5.68;1.50;;;1.60;99.90;;;;;;4998944;28;20038;-63
2023/03/15 04:19:04;;;;;;;4.32;1.50;;;1.60;99.90;;;;;;4993873;28;20053;-63
2023/03/15 04:21:30;;;;;;;5.35;1.20;;;1.60;99.90;;;;;;4992901;28;20061;-63
2023/03/15 04:24:00;;;;;;;5.93;1.20;;;1.60;99.90;;;;;;4995579;28;20041;-63
2023/03/15 04:26:27;;;;;;;4.38;1.05;;;1.60;99.90;;;;;;4997313;28;20503;-64
2023/03/15 04:28:56;;;;;;;6.32;1.42;;;1.60;99.90;;;;;;4994731;28;20042;-64
2023/03/15 04:31:26;;;;;;;3.20;1.15;;;1.60;99.90;;;;;;4992298;28;20034;-63
2023/03/15 04:33:55;;;;;;;8.93;1.70;;;1.60;99.90;;;;;;4993236;28;20034;-63
2023/03/15 04:36:22;;;;;;;3.15;1.27;;;1.60;99.90;;;;;;4992664;28;20117;-63
2023/03/15 04:38:48;;;;;;;7.70;1.80;;;1.60;99.90;;;;;;4994513;28;20042;-64
2023/03/15 04:41:16;;;;;;;6.30;1.50;;;1.60;99.90;;;;;;4994121;28;20532;-63
2023/03/15 04:43:42;;;;;;;6.72;1.30;;;1.60;99.90;;;;;;4977510;28;20034;-63
2023/03/15 04:46:08;;;;;;;4.53;1.75;;;1.70;99.90;;;;;;4994047;28;20040;-63
2023/03/15 04:48:34;;;;;;;4.32;1.45;;;1.70;99.90;;;;;;5017003;28;20038;-63
2023/03/15 04:50:59;;;;;;;4.30;1.60;;;1.70;99.90;;;;;;4976568;28;20065;-63
2023/03/15 04:53:25;;;;;;;6.03;1.38;;;1.70;99.90;;;;;;5000325;28;20472;-63
2023/03/15 04:55:51;;;;;;;7.95;1.40;;;1.70;99.90;;;;;;4993941;28;20048;-63
2023/03/15 04:58:17;;;;;;;4.40;1.42;;;1.70;99.90;;;;;;4998020;28;20049;-63
2023/03/15 05:00:42;;;;;;;3.50;1.10;;;1.60;99.90;;;;;;4993618;28;20079;-63
2023/03/15 05:03:08;;;;;;;5.00;1.15;;;1.60;99.90;;;;;;4991932;28;20393;-64
2023/03/15 05:05:33;;;;;;;4.78;1.67;;;1.60;99.90;;;;;;4990439;28;20628;-64
2023/03/15 05:07:59;;;;;;;7.82;1.45;;;1.60;99.90;;;;;;4992552;28;20046;-63
2023/03/15 05:10:25;;;;;;;6.57;1.40;;;1.50;99.90;;;;;;4992113;28;20038;-64
2023/03/15 05:12:51;;;;;;;5.65;1.40;;;1.50;99.90;;;;;;4997363;28;20101;-64
2023/03/15 05:15:17;;;;;;;6.47;1.58;;;1.50;99.90;;;;;;4994965;28;20073;-64
2023/03/15 05:17:45;;;;;;;4.32;1.30;;;1.50;99.90;;;;;;4993328;28;20400;-63
2023/03/15 05:20:12;;;;;;;4.00;1.23;;;1.40;99.90;;;;;;4992042;28;20038;-63
2023/03/15 05:22:39;;;;;;;5.97;1.50;;;1.40;99.90;;;;;;4998795;28;20031;-64
2023/03/15 05:25:06;;;;;;;6.70;1.33;;;1.50;99.90;;;;;;4993453;28;20047;-64
2023/03/15 05:27:33;;;;;;;7.72;1.33;;;1.40;99.90;;;;;;5019237;28;20038;-63
2023/03/15 05:30:01;;;;;;;6.07;1.23;;;1.40;99.90;;;;;;4992584;28;20046;-63
2023/03/15 05:32:27;;;;;;;5.65;1.40;;;1.40;99.90;;;;;;5000875;28;20050;-63
2023/03/15 05:34:53;;;;;;;3.35;1.20;;;1.40;99.90;;;;;;4993390;28;20038;-63
2023/03/15 05:37:21;;;;;;;6.50;1.50;;;1.30;99.90;;;;;;4993314;28;20034;-64
2023/03/15 05:39:47;;;;;;;5.18;1.33;;;1.40;99.90;;;;;;4993011;28;20060;-63
2023/03/15 05:42:12;;;;;;;5.95;1.10;;;1.40;99.90;;;;;;4996074;28;20487;-63
2023/03/15 05:44:38;;;;;;;10.02;2.13;;;1.40;99.90;;;;;;5016064;28;20399;-64
2023/03/15 05:47:03;;;;;;;6.28;1.30;;;1.40;99.90;;;;;;4998479;28;20042;-63
2023/03/15 05:49:29;;;;;;;8.02;1.35;;;1.40;99.90;;;;;;4990902;28;20073;-64
2023/03/15 05:51:55;;;;;;;5.68;1.40;;;1.40;99.90;;;;;;5000180;28;20397;-64
2023/03/15 05:54:20;;;;;;;7.13;1.42;;;1.50;99.90;;;;;;4992740;28;20034;-64
2023/03/15 05:56:46;;;;;;;8.70;1.65;;;1.50;99.90;;;;;;4992750;28;20045;-64
2023/03/15 05:59:12;;;;;;;7.90;1.50;;;1.50;99.90;;;;;;4992167;28;20034;-64
2023/03/15 06:01:37;;;;;;;6.18;1.48;;;1.60;99.90;;;;;;4992314;28;20469;-64
2023/03/15 06:04:03;;;;;;;4.70;1.55;;;1.60;99.90;;;;;;4992793;28;20038;-64
2023/03/15 06:06:28;;;;;;;8.27;1.42;;;1.70;99.90;;;;;;4991662;28;20065;-64
2023/03/15 06:08:54;;;;;;;6.18;1.63;;;1.70;99.90;;;;;;4982932;28;20874;-64
2023/03/15 06:11:20;;;;;;;9.52;2.10;;;1.70;99.90;;;;;;4997631;28;20038;-63
2023/03/15 06:13:45;;;;;;;8.00;1.65;;;1.80;99.90;;;;;;4991247;28;20042;-64
2023/03/15 06:16:11;;;;;;;5.45;1.10;;;1.80;99.90;;;;;;4990010;28;20038;-64
2023/03/15 06:18:36;;;;;;;5.35;2.05;;;1.80;99.90;;;;;;4995690;28;20125;-64
2023/03/15 06:21:02;;;;;;;6.18;1.70;;;1.80;99.90;;;;;;4993484;28;20081;-63
2023/03/15 06:23:27;;;;;;;4.20;1.48;;;1.90;99.90;;;;;;4991739;28;20053;-63
2023/03/15 06:25:53;;;;;;;8.65;2.10;;;1.80;99.90;;;;;;4990454;28;20100;-63
2023/03/15 06:28:18;;;;;;;4.75;1.40;;;1.90;99.90;;;;;;5008065;28;20037;-63
2023/03/15 06:30:44;;;;;;;5.07;1.35;;;1.90;99.90;;;;;;4994414;28;20065;-63
2023/03/15 06:33:10;;;;;;;6.45;1.40;;;1.80;99.90;;;;;;4975169;28;20488;-63
2023/03/15 06:35:36;;;;;;;9.15;1.40;;;1.80;99.90;;;;;;4972097;28;20053;-63
2023/03/15 06:38:01;;;;;;;7.68;1.60;;;1.90;99.90;;;;;;4991519;28;20517;-63
2023/03/15 06:40:27;;;;;;;9.43;2.15;;;1.80;99.90;;;;;;4993061;28;20046;-63
2023/03/15 06:42:53;;;;;;;4.97;1.45;;;1.80;99.90;;;;;;4996267;28;20168;-63
2023/03/15 06:45:19;;;;;;;8.80;1.50;;;1.80;99.90;;;;;;4988059;28;20053;-63
2023/03/15 06:47:44;;;;;;;3.97;1.38;;;1.80;99.90;;;;;;4988808;28;20035;-63
2023/03/15 06:50:11;;;;;;;4.63;1.30;;;1.80;99.90;;;;;;5005949;28;20042;-63
2023/03/15 06:52:37;;;;;;;5.57;1.50;;;1.80;99.90;;;;;;4994103;28;20034;-63
2023/03/15 06:55:04;;;;;;;7.28;1.17;;;1.80;99.90;;;;;;4994112;28;20140;-63
2023/03/15 06:57:29;;;;;;;7.97;1.45;;;1.80;99.90;;;;;;5005524;28;20038;-63
2023/03/15 06:59:55;;;;;;;3.92;1.30;;;1.80;99.90;;;;;;4992685;28;20039;-63
2023/03/15 07:02:21;;;;;;;6.05;1.73;;;1.90;99.90;;;;;;5004371;28;20077;-63
2023/03/15 07:04:46;;;;;;;6.63;1.33;;;1.90;99.90;;;;;;4994237;28;20034;-63
2023/03/15 07:07:12;;;;;;;9.57;1.35;;;2.00;99.90;;;;;;4990554;28;20108;-63
2023/03/15 07:09:38;;;;;;;4.70;1.25;;;2.00;99.90;;;;;;4998026;28;20096;-63
2023/03/15 07:12:04;;;;;;;5.47;1.35;;;2.00;99.90;;;;;;4982659;28;20037;-63
2023/03/15 07:14:31;;;;;;;6.35;1.65;;;2.10;99.90;;;;;;4991337;28;20030;-63
2023/03/15 07:16:57;;;;;;;7.47;1.30;;;2.20;99.90;;;;;;4984031;28;20183;-63
2023/03/15 07:19:22;;;;;;;8.25;1.80;;;2.20;99.90;;;;;;4988391;28;20038;-63
2023/03/15 07:21:48;;;;;;;7.80;1.60;;;2.20;99.90;;;;;;4992872;28;20043;-63
2023/03/15 07:24:14;;;;;;;4.55;1.75;;;2.30;99.90;;;;;;4991007;28;20122;-63
2023/03/15 07:26:39;;;;;;;4.55;1.70;;;2.40;99.90;;;;;;4991333;28;20066;-63
2023/03/15 07:29:05;;;;;;;7.65;1.40;;;2.40;99.90;;;;;;5002971;28;20391;-63
2023/03/15 07:31:30;;;;;;;7.97;1.83;;;2.50;99.90;;;;;;4973586;28;20093;-63
2023/03/15 07:33:56;;;;;;;7.15;1.80;;;2.60;99.90;;;;;;4991909;28;20096;-63
2023/03/15 07:36:22;;;;;;;4.60;1.23;;;2.60;99.90;;;;;;4973380;28;20031;-63
2023/03/15 07:38:47;;;;;;;5.05;1.30;;;2.70;99.90;;;;;;4991932;28;20050;-63
2023/03/15 07:41:13;;;;;;;4.75;1.40;;;2.80;99.90;;;;;;4989715;28;20046;-63
2023/03/15 07:43:38;;;;;;;2.22;1.13;;;2.90;99.90;;;;;;4997026;28;20077;-63
2023/03/15 07:46:05;;;;;;;5.03;1.45;;;3.00;99.90;;;;;;4998701;28;20034;-63
2023/03/15 07:48:31;;;;;;;7.97;1.90;;;3.20;99.90;;;;;;4991378;28;20074;-63
2023/03/15 07:50:56;;;;;;;7.40;1.48;;;3.40;99.90;;;;;;4991428;28;20093;-63
2023/03/15 07:53:22;;;;;;;6.13;1.90;;;3.50;99.90;;;;;;4992678;28;20030;-63
2023/03/15 07:55:48;;;;;;;7.63;1.70;;;3.60;99.90;;;;;;4986666;28;20038;-63
2023/03/15 07:58:14;;;;;;;6.25;1.42;;;3.70;99.90;;;;;;4991107;28;20053;-62
2023/03/15 08:00:40;;;;;;;7.43;1.70;;;3.80;99.90;;;;;;4972064;28;20381;-63
2023/03/15 08:03:06;;;;;;;8.98;1.67;;;3.90;99.90;;;;;;4993893;28;20030;-63
2023/03/15 08:05:32;;;;;;;6.43;1.40;;;4.00;99.90;;;;;;4991784;28;20088;-64
2023/03/15 08:07:58;;;;;;;5.00;1.48;;;4.00;99.90;;;;;;4999027;28;20057;-63
2023/03/15 08:10:24;;;;;;;7.68;1.50;;;4.10;99.90;;;;;;5018867;28;20658;-63
2023/03/15 08:12:50;;;;;;;8.18;1.52;;;4.20;99.90;;;;;;4994858;28;20039;-63
2023/03/15 08:15:15;;;;;;;11.18;1.67;;;4.30;99.90;;;;;;4996307;28;20504;-63
2023/03/15 08:17:41;;;;;;;7.50;1.35;;;4.40;99.90;;;;;;4995109;28;20030;-63
2023/03/15 08:20:10;;;;;;;7.60;1.67;;;4.50;99.90;;;;;;5009467;28;20049;-63
2023/03/15 08:22:37;;;;;;;4.47;1.40;;;4.60;99.90;;;;;;4975783;28;20042;-63
2023/03/15 08:25:03;;;;;;;9.02;1.35;;;4.70;99.90;;;;;;4996625;28;20035;-63
2023/03/15 08:27:29;;;;;;;9.45;1.67;;;4.80;99.90;;;;;;4993565;28;20038;-63
2023/03/15 08:29:54;;;;;;;11.00;1.98;;;4.90;99.90;;;;;;4994056;28;20045;-63
2023/03/15 08:32:20;;;;;;;5.95;1.67;;;5.00;99.90;;;;;;4994388;28;20063;-63
2023/03/15 08:34:46;;;;;;;7.57;1.55;;;5.10;99.90;;;;;;5007498;28;20512;-63
2023/03/15 08:37:12;;;;;;;8.65;1.42;;;5.10;99.90;;;;;;4972915;28;20065;-63
2023/03/15 08:39:38;;;;;;;12.02;1.90;;;5.20;99.90;;;;;;4975944;28;20042;-63
2023/03/15 08:42:04;;;;;;;7.40;1.20;;;5.30;99.90;;;;;;4990961;28;20121;-63
2023/03/15 08:44:31;;;;;;;10.05;1.60;;;5.40;99.90;;;;;;4976006;28;20503;-63
2023/03/15 08:46:56;;;;;;;9.57;1.83;;;5.50;99.90;;;;;;4985422;28;20046;-62
2023/03/15 08:49:22;;;;;;;9.00;1.60;;;5.60;99.90;;;;;;4993583;28;20121;-63
2023/03/15 08:51:47;;;;;;;9.32;1.30;;;5.60;99.90;;;;;;4992790;28;20113;-63
2023/03/15 08:54:13;;;;;;;9.35;1.70;;;5.70;99.90;;;;;;4990783;28;20447;-63
2023/03/15 08:56:40;;;;;;;8.23;1.67;;;5.80;99.90;;;;;;4975935;28;20126;-63
2023/03/15 08:59:06;;;;;;;7.55;1.90;;;6.00;99.90;;;;;;4991816;28;20034;-63
2023/03/15 09:01:33;;;;;;;7.82;1.63;;;6.00;99.90;;;;;;4974353;28;20046;-62
2023/03/15 09:04:00;;;;;;;7.95;1.70;;;6.20;99.90;;;;;;5009240;28;20042;-63
2023/03/15 09:06:26;;;;;;;10.43;1.88;;;6.30;99.90;;;;;;4993313;28;20059;-63
2023/03/15 09:08:52;;;;;;;8.18;1.50;;;6.40;99.90;;;;;;4994257;28;20045;-62
2023/03/15 09:11:19;;;;;;;6.63;1.42;;;6.30;99.90;;;;;;4992241;28;20034;-63
2023/03/15 09:13:44;;;;;;;7.18;1.80;;;6.20;99.90;;;;;;4993947;28;20034;-63
2023/03/15 09:16:10;;;;;;;7.05;1.33;;;6.00;99.90;;;;;;4991433;28;20112;-63
2023/03/15 09:18:35;;;;;;;6.40;1.67;;;5.90;99.90;;;;;;4995269;28;20042;-62
2023/03/15 09:21:01;;;;;;;8.02;1.50;;;5.90;99.90;;;;;;4987961;28;20046;-62
2023/03/15 09:23:27;;;;;;;8.30;1.40;;;6.00;99.90;;;;;;4998876;28;20029;-62
2023/03/15 09:25:52;;;;;;;11.98;1.65;;;6.30;99.90;;;;;;4996367;28;20117;-62
2023/03/15 09:28:18;;;;;;;7.60;1.30;;;6.50;99.90;;;;;;4989894;28;20034;-62
2023/03/15 09:30:43;;;;;;;6.68;1.40;;;6.70;99.90;;;;;;4989297;28;20057;-62
2023/03/15 09:33:13;;;;;;;7.13;1.40;;;6.90;99.90;;;;;;4994467;28;20042;-63
2023/03/15 09:35:39;;;;;;;6.78;1.85;;;6.80;99.90;;;;;;4993444;28;20514;-62
2023/03/15 09:38:05;;;;;;;6.90;1.33;;;6.50;99.90;;;;;;4992445;28;20034;-62
2023/03/15 09:40:39;;;;;;;7.80;1.40;;;6.50;99.90;;;;;;4995818;28;20400;-63
2023/03/15 09:43:09;;;;;;;6.03;1.30;;;6.40;99.90;;;;;;4990830;28;20030;-63
2023/03/15 09:46:01;;;;;;;6.10;1.38;;;6.50;99.90;;;;;;4993574;28;20252;-63
2023/03/15 09:48:51;;;;;;;5.43;1.67;;;6.50;99.90;;;;;;5005936;28;20077;-63
2023/03/15 09:51:38;;;;;;;5.70;1.40;;;6.60;99.90;;;;;;4994259;28;20492;-63
2023/03/15 09:54:12;;;;;;;6.22;1.40;;;6.70;99.90;;;;;;5002296;28;20029;-63
2023/03/15 09:56:49;;;;;;;7.60;1.50;;;6.80;99.90;;;;;;4996902;28;20070;-63
2023/03/15 09:59:16;;;;;;;4.70;1.42;;;7.00;99.90;;;;;;4991776;28;20507;-63
2023/03/15 10:01:42;;;;;;;6.07;1.30;;;7.20;99.90;;;;;;4988695;28;20038;-64
2023/03/15 10:04:28;;;;;;;8.90;1.40;;;7.00;99.90;;;;;;4975440;28;20496;-64
2023/03/15 10:07:00;;;;;;;7.10;1.23;;;7.00;99.90;;;;;;4999099;28;20045;-63
2023/03/15 10:09:33;;;;;;;6.53;1.55;;;7.10;99.90;;;;;;4990955;28;20176;-63
2023/03/15 10:12:09;;;;;;;3.00;1.10;;;7.10;99.90;;;;;;4986990;28;20496;-63
2023/03/15 10:15:00;;;;;;;6.80;1.10;;;7.20;99.90;;;;;;4995717;28;20042;-63
2023/03/15 10:17:44;;;;;;;5.47;1.30;;;7.20;99.90;;;;;;4999931;28;20065;-62
2023/03/15 10:20:24;;;;;;;4.68;1.20;;;7.20;99.90;;;;;;4990100;28;20496;-63
2023/03/15 10:22:59;;;;;;;6.70;1.15;;;7.20;99.90;;;;;;4991800;28;20043;-62
2023/03/15 10:25:29;;;;;;;4.85;1.05;;;7.30;99.90;;;;;;4985184;28;20093;-63
2023/03/15 10:27:59;;;;;;;6.93;1.20;;;7.40;99.90;;;;;;4974351;28;20042;-63
2023/03/15 10:30:28;;;;;;;6.90;1.27;;;7.50;99.90;;;;;;4989985;28;20169;-63
2023/03/15 10:33:13;;;;;;;7.53;1.52;;;7.60;99.90;;;;;;4990602;28;20054;-63
2023/03/15 10:35:41;;;;;;;5.90;1.20;;;7.60;99.90;;;;;;4991118;28;20030;-63
2023/03/15 10:38:19;;;;;;;3.28;0.98;;;7.60;99.90;;;;;;4990328;28;20534;-63
2023/03/15 10:40:48;;;;;;;5.05;1.30;;;7.70;99.90;;;;;;4990122;28;20081;-62
2023/03/15 10:43:18;;;;;;;4.00;1.05;;;7.70;99.90;;;;;;4991877;28;20034;-63
2023/03/15 10:45:56;;;;;;;5.65;1.13;;;7.80;99.90;;;;;;4992247;28;20516;-63
2023/03/15 10:48:21;;;;;;;5.28;1.38;;;7.90;99.90;;;;;;4983529;28;20038;-63
2023/03/15 10:50:50;;;;;;;6.53;1.10;;;8.10;99.90;;;;;;4990861;28;20050;-63
2023/03/15 10:53:24;;;;;;;6.05;1.10;;;8.10;99.90;;;;;;5005495;22;20043;-65
2023/03/15 10:56:01;;;;;;;6.93;1.92;;;8.30;99.90;;;;;;5006382;28;20037;-65
2023/03/15 10:58:45;;;;;;;4.57;1.15;;;8.30;99.90;;;;;;4994961;28;20054;-65
2023/03/15 11:01:33;;;;;;;8.00;1.30;;;8.30;99.90;;;;;;5007834;28;20050;-64
2023/03/15 11:04:12;;;;;;;4.93;1.25;;;8.30;98.20;;;;;;5008726;28;20121;-64
2023/03/15 11:06:54;;;;;;;5.53;1.35;;;8.20;97.20;;;;;;5010928;28;20032;-64
2023/03/15 11:09:22;;;;;;;4.65;1.23;;;8.20;99.30;;;;;;5006865;28;20050;-64
2023/03/15 11:12:06;;;;;;;6.80;1.30;;;8.40;99.90;;;;;;5013872;28;20103;-64
2023/03/15 11:14:38;;;;;;;4.03;0.90;;;8.50;99.80;;;;;;5009447;28;20046;-64
2023/03/15 11:17:05;;;;;;;3.67;1.23;;;8.60;99.20;;;;;;5011515;28;20048;-65
2023/03/15 11:19:37;;;;;;;6.68;1.20;;;8.60;97.00;;;;;;5009874;28;20049;-65
2023/03/15 11:22:03;;;;;;;2.13;1.05;;;8.50;97.30;;;;;;5009970;28;20042;-65
2023/03/15 11:24:30;;;;;;;5.38;1.13;;;8.50;96.90;;;;;;4992876;28;20030;-65
2023/03/15 11:27:02;;;;;;;4.30;1.08;;;8.60;97.90;;;;;;5010124;28;20137;-66
2023/03/15 11:29:35;;;;;;;5.32;1.27;;;8.70;96.70;;;;;;5012307;28;20111;-65
2023/03/15 11:32:36;;;;;;;3.35;0.90;;;8.80;94.40;;;;;;5004732;28;20487;-65
2023/03/15 11:35:06;;;;;;;4.78;0.75;;;8.80;95.10;;;;;;4933864;28;20058;-63
2023/03/15 11:37:41;;;;;;;5.00;1.13;;;8.90;94.70;;;;;;5008265;28;20069;-65
2023/03/15 11:40:23;;;;;;;3.10;0.90;;;8.90;92.90;;;;;;5013307;28;20049;-64
2023/03/15 11:42:56;;;;;;;6.43;1.05;;;8.90;92.50;;;;;;5015313;28;20037;-65
2023/03/15 11:45:46;;;;;;;4.15;0.70;;;8.90;88.80;;;;;;5013593;28;20038;-65
2023/03/15 11:48:21;;;;;;;4.97;1.02;;;8.80;83.00;;;;;;5015575;28;20046;-64
2023/03/15 11:50:46;;;;;;;5.00;1.27;;;8.70;85.80;;;;;;5014048;28;20479;-65
2023/03/15 11:53:16;;;;;;;3.67;0.82;;;8.60;87.40;;;;;;5011458;28;20065;-65
2023/03/15 11:55:53;;;;;;;7.35;1.23;;;8.70;87.90;;;;;;5014608;28;20428;-65
2023/03/15 11:58:41;;;;;;;3.20;0.70;;;8.70;86.30;;;;;;5016145;28;20042;-64
2023/03/15 12:01:10;;;;;;;6.78;1.30;;;8.70;83.20;;;;;;5014006;28;20041;-65
2023/03/15 12:03:39;;;;;;;4.10;1.23;;;8.40;82.20;;;;;;5014668;28;20121;-65
2023/03/15 12:06:32;;;;;;;4.03;0.90;;;8.40;83.40;;;;;;5014053;28;20033;-64
2023/03/15 12:08:57;;;;;;;4.57;0.90;;;8.40;82.10;;;;;;5014031;28;20042;-64
2023/03/15 12:11:23;;;;;;;7.60;1.27;;;8.50;84.50;;;;;;5013246;28;20499;-64
2023/03/15 12:14:01;;;;;;;4.45;0.95;;;8.60;82.30;;;;;;5014810;28;20063;-65
2023/03/15 12:16:41;;;;;;;4.10;1.10;;;8.80;79.40;;;;;;5014435;28;20558;-65
2023/03/15 12:19:18;;;;;;;6.40;0.95;;;8.90;82.40;;;;;;5013072;28;20044;-64
2023/03/15 12:21:49;;;;;;;4.25;1.05;;;9.00;81.70;;;;;;5013796;28;20076;-65
2023/03/15 12:24:25;;;;;;;4.68;0.90;;;8.90;82.10;;;;;;4995709;28;20169;-64
2023/03/15 12:27:03;;;;;;;3.35;1.20;;;9.00;81.40;;;;;;5013406;28;20042;-64
2023/03/15 12:29:31;;;;;;;1.73;0.68;;;9.10;82.40;;;;;;5007630;28;20038;-64
2023/03/15 12:32:02;;;;;;;2.85;0.70;;;9.20;81.80;;;;;;4996454;28;20045;-65
2023/03/15 12:34:36;;;;;;;4.20;1.10;;;9.40;82.30;;;;;;5014496;28;20171;-65
2023/03/15 12:37:08;;;;;;;4.07;0.90;;;9.50;81.30;;;;;;5013308;28;20144;-64
2023/03/15 12:39:44;;;;;;;3.50;1.05;;;9.50;81.00;;;;;;5011476;28;20037;-64
2023/03/15 12:42:28;;;;;;;5.30;0.98;;;9.50;78.70;;;;;;5014378;28;20057;-64
2023/03/15 12:44:53;;;;;;;4.80;0.93;;;9.30;74.70;;;;;;5012903;28;20045;-65
2023/03/15 12:47:19;;;;;;;4.15;1.20;;;9.20;77.70;;;;;;5012645;28;20034;-65
2023/03/15 12:49:45;;;;;;;5.65;1.17;;;9.10;79.40;;;;;;5012414;28;20117;-64
2023/03/15 12:52:10;;;;;;;3.05;0.93;;;9.10;77.90;;;;;;4997688;28;20038;-65
2023/03/15 12:54:40;;;;;;;4.28;0.90;;;9.20;77.90;;;;;;5007929;28;20502;-64
2023/03/15 12:57:13;;;;;;;3.65;0.80;;;9.30;77.40;;;;;;5013788;28;20049;-64
2023/03/15 12:59:49;;;;;;;4.85;1.10;;;9.40;74.90;;;;;;5013390;28;20033;-64
2023/03/15 13:02:35;;;;;;;2.40;0.95;;;9.40;73.80;;;;;;5012155;28;20042;-65
2023/03/15 13:05:39;;;;;;;4.70;1.15;;;9.50;73.80;;;;;;5008755;28;20689;-65